sensor_id;sensor_type;location;lat;lon;timestamp;P1;durP1;ratioP1;P2;durP2;ratioP2
76208;SDS011;64990;51.698;-0.292;2022-12-22T00:01:12;37.63;;;13.68;;
76208;SDS011;64990;51.698;-0.292;2022-12-22T00:03:57;42.22;;;15.20;;
76208;SDS011;64990;51.698;-0.292;2022-12-22T00:06:42;40.90;;;14.07;;
76208;SDS011;64990;51.698;-0.292;2022-12-22T00:09:27;46.30;;;16.07;;
76208;SDS011;64990;51.698;-0.292;2022-12-22T00:12:12;34.70;;;13.63;;
76208;SDS011;64990;51.698;-0.292;2022-12-22T00:14:58;35.70;;;13.27;;
76208;SDS011;64990;51.698;-0.292;2022-12-22T00:17:43;42.80;;;13.13;;
76208;SDS011;64990;51.698;-0.292;2022-12-22T00:20:27;33.70;;;13.67;;
76208;SDS011;64990;51.698;-0.292;2022-12-22T00:23:12;49.88;;;13.32;;
76208;SDS011;64990;51.698;-0.292;2022-12-22T00:25:57;45.87;;;15.93;;
76208;SDS011;64990;51.698;-0.292;2022-12-22T00:28:42;40.22;;;13.55;;
76208;SDS011;64990;51.698;-0.292;2022-12-22T00:31:27;40.95;;;13.20;;
76208;SDS011;64990;51.698;-0.292;2022-12-22T00:34:13;34.92;;;12.80;;
76208;SDS011;64990;51.698;-0.292;2022-12-22T00:36:59;30.60;;;14.50;;
76208;SDS011;64990;51.698;-0.292;2022-12-22T00:39:43;35.33;;;12.88;;
76208;SDS011;64990;51.698;-0.292;2022-12-22T00:42:28;30.20;;;13.53;;
76208;SDS011;64990;51.698;-0.292;2022-12-22T00:45:13;41.13;;;12.83;;
76208;SDS011;64990;51.698;-0.292;2022-12-22T00:47:57;30.43;;;12.80;;
76208;SDS011;64990;51.698;-0.292;2022-12-22T00:50:42;36.88;;;13.52;;
76208;SDS011;64990;51.698;-0.292;2022-12-22T00:53:27;36.33;;;13.00;;
76208;SDS011;64990;51.698;-0.292;2022-12-22T00:56:13;35.70;;;13.10;;
76208;SDS011;64990;51.698;-0.292;2022-12-22T00:58:57;37.00;;;14.07;;
76208;SDS011;64990;51.698;-0.292;2022-12-22T01:01:43;32.65;;;11.77;;
76208;SDS011;64990;51.698;-0.292;2022-12-22T01:04:27;70.28;;;12.80;;
76208;SDS011;64990;51.698;-0.292;2022-12-22T01:07:13;40.67;;;10.75;;
76208;SDS011;64990;51.698;-0.292;2022-12-22T01:12:42;41.03;;;10.77;;
76208;SDS011;64990;51.698;-0.292;2022-12-22T01:15:28;37.88;;;12.18;;
76208;SDS011;64990;51.698;-0.292;2022-12-22T01:20:57;40.80;;;12.73;;
76208;SDS011;64990;51.698;-0.292;2022-12-22T01:23:42;42.17;;;13.87;;
76208;SDS011;64990;51.698;-0.292;2022-12-22T01:26:27;50.85;;;13.55;;
76208;SDS011;64990;51.698;-0.292;2022-12-22T01:29:12;40.15;;;14.32;;
76208;SDS011;64990;51.698;-0.292;2022-12-22T01:31:57;32.08;;;11.60;;
76208;SDS011;64990;51.698;-0.292;2022-12-22T01:34:41;36.47;;;13.27;;
76208;SDS011;64990;51.698;-0.292;2022-12-22T01:37:26;32.60;;;11.63;;
76208;SDS011;64990;51.698;-0.292;2022-12-22T01:40:16;42.67;;;12.97;;
76208;SDS011;64990;51.698;-0.292;2022-12-22T01:43:01;43.85;;;13.10;;
76208;SDS011;64990;51.698;-0.292;2022-12-22T01:45:45;31.63;;;12.93;;
76208;SDS011;64990;51.698;-0.292;2022-12-22T01:48:30;34.70;;;13.17;;
76208;SDS011;64990;51.698;-0.292;2022-12-22T01:51:19;21.67;;;10.82;;
76208;SDS011;64990;51.698;-0.292;2022-12-22T01:54:05;32.30;;;12.73;;
76208;SDS011;64990;51.698;-0.292;2022-12-22T01:56:51;35.85;;;10.80;;
76208;SDS011;64990;51.698;-0.292;2022-12-22T01:59:35;28.27;;;10.07;;
76208;SDS011;64990;51.698;-0.292;2022-12-22T02:02:20;21.05;;;9.80;;
76208;SDS011;64990;51.698;-0.292;2022-12-22T02:05:06;26.42;;;11.52;;
76208;SDS011;64990;51.698;-0.292;2022-12-22T02:07:58;29.75;;;10.45;;
76208;SDS011;64990;51.698;-0.292;2022-12-22T02:14:10;36.13;;;11.68;;
76208;SDS011;64990;51.698;-0.292;2022-12-22T02:16:47;33.42;;;12.13;;
76208;SDS011;64990;51.698;-0.292;2022-12-22T02:19:40;26.90;;;12.80;;
76208;SDS011;64990;51.698;-0.292;2022-12-22T02:22:33;36.53;;;11.07;;
76208;SDS011;64990;51.698;-0.292;2022-12-22T02:25:24;37.78;;;12.63;;
76208;SDS011;64990;51.698;-0.292;2022-12-22T02:28:10;41.10;;;13.40;;
76208;SDS011;64990;51.698;-0.292;2022-12-22T02:30:56;36.38;;;11.88;;
76208;SDS011;64990;51.698;-0.292;2022-12-22T02:33:41;44.33;;;12.65;;
76208;SDS011;64990;51.698;-0.292;2022-12-22T02:45:28;33.60;;;12.23;;
76208;SDS011;64990;51.698;-0.292;2022-12-22T02:48:15;22.92;;;10.27;;
76208;SDS011;64990;51.698;-0.292;2022-12-22T02:51:03;61.45;;;12.98;;
76208;SDS011;64990;51.698;-0.292;2022-12-22T02:53:50;38.92;;;11.82;;
76208;SDS011;64990;51.698;-0.292;2022-12-22T02:56:36;29.23;;;9.00;;
76208;SDS011;64990;51.698;-0.292;2022-12-22T02:59:21;37.42;;;11.32;;
76208;SDS011;64990;51.698;-0.292;2022-12-22T03:02:06;22.90;;;9.60;;
76208;SDS011;64990;51.698;-0.292;2022-12-22T03:04:51;49.67;;;10.73;;
76208;SDS011;64990;51.698;-0.292;2022-12-22T03:07:35;38.80;;;13.20;;
76208;SDS011;64990;51.698;-0.292;2022-12-22T03:10:20;65.07;;;12.30;;
76208;SDS011;64990;51.698;-0.292;2022-12-22T03:13:04;32.28;;;10.25;;
76208;SDS011;64990;51.698;-0.292;2022-12-22T03:15:49;36.90;;;9.75;;
76208;SDS011;64990;51.698;-0.292;2022-12-22T03:18:35;39.53;;;11.70;;
76208;SDS011;64990;51.698;-0.292;2022-12-22T03:21:20;51.78;;;11.88;;
76208;SDS011;64990;51.698;-0.292;2022-12-22T03:24:04;27.67;;;9.53;;
76208;SDS011;64990;51.698;-0.292;2022-12-22T03:26:49;33.63;;;10.57;;
76208;SDS011;64990;51.698;-0.292;2022-12-22T03:29:15;34.35;;;11.52;;
76208;SDS011;64990;51.698;-0.292;2022-12-22T03:31:41;27.83;;;10.38;;
76208;SDS011;64990;51.698;-0.292;2022-12-22T03:34:07;50.25;;;11.10;;
76208;SDS011;64990;51.698;-0.292;2022-12-22T03:36:33;28.85;;;10.70;;
76208;SDS011;64990;51.698;-0.292;2022-12-22T03:39:00;46.78;;;10.23;;
76208;SDS011;64990;51.698;-0.292;2022-12-22T03:41:26;48.83;;;11.80;;
76208;SDS011;64990;51.698;-0.292;2022-12-22T03:44:10;21.88;;;8.32;;
76208;SDS011;64990;51.698;-0.292;2022-12-22T03:46:55;58.47;;;12.57;;
76208;SDS011;64990;51.698;-0.292;2022-12-22T03:49:21;30.38;;;8.32;;
76208;SDS011;64990;51.698;-0.292;2022-12-22T03:51:50;38.58;;;8.75;;
76208;SDS011;64990;51.698;-0.292;2022-12-22T03:54:18;27.17;;;8.32;;
76208;SDS011;64990;51.698;-0.292;2022-12-22T03:56:45;26.88;;;8.90;;
76208;SDS011;64990;51.698;-0.292;2022-12-22T03:59:11;44.55;;;10.15;;
76208;SDS011;64990;51.698;-0.292;2022-12-22T04:01:38;30.77;;;8.52;;
76208;SDS011;64990;51.698;-0.292;2022-12-22T04:04:05;34.15;;;9.18;;
76208;SDS011;64990;51.698;-0.292;2022-12-22T04:06:31;35.97;;;12.20;;
76208;SDS011;64990;51.698;-0.292;2022-12-22T04:08:57;38.08;;;11.27;;
76208;SDS011;64990;51.698;-0.292;2022-12-22T04:11:23;36.00;;;10.43;;
76208;SDS011;64990;51.698;-0.292;2022-12-22T04:14:07;33.03;;;9.70;;
76208;SDS011;64990;51.698;-0.292;2022-12-22T04:16:33;38.28;;;10.73;;
76208;SDS011;64990;51.698;-0.292;2022-12-22T04:18:59;41.78;;;11.93;;
76208;SDS011;64990;51.698;-0.292;2022-12-22T04:21:25;31.65;;;10.32;;
76208;SDS011;64990;51.698;-0.292;2022-12-22T04:23:51;28.85;;;9.65;;
76208;SDS011;64990;51.698;-0.292;2022-12-22T04:26:18;38.28;;;10.85;;
76208;SDS011;64990;51.698;-0.292;2022-12-22T04:28:44;54.53;;;11.68;;
76208;SDS011;64990;51.698;-0.292;2022-12-22T04:31:10;31.17;;;11.52;;
76208;SDS011;64990;51.698;-0.292;2022-12-22T04:33:36;40.08;;;11.77;;
76208;SDS011;64990;51.698;-0.292;2022-12-22T04:36:03;42.90;;;9.43;;
76208;SDS011;64990;51.698;-0.292;2022-12-22T04:38:29;26.67;;;9.45;;
76208;SDS011;64990;51.698;-0.292;2022-12-22T04:40:55;129.93;;;16.98;;
76208;SDS011;64990;51.698;-0.292;2022-12-22T04:43:21;45.78;;;10.80;;
76208;SDS011;64990;51.698;-0.292;2022-12-22T04:45:50;42.03;;;11.93;;
76208;SDS011;64990;51.698;-0.292;2022-12-22T04:48:17;78.15;;;12.80;;
76208;SDS011;64990;51.698;-0.292;2022-12-22T04:50:43;47.25;;;10.85;;
76208;SDS011;64990;51.698;-0.292;2022-12-22T04:53:09;41.00;;;11.10;;
76208;SDS011;64990;51.698;-0.292;2022-12-22T04:55:35;34.20;;;10.15;;
76208;SDS011;64990;51.698;-0.292;2022-12-22T04:58:01;40.42;;;10.63;;
76208;SDS011;64990;51.698;-0.292;2022-12-22T05:00:27;48.53;;;11.00;;
76208;SDS011;64990;51.698;-0.292;2022-12-22T05:02:53;48.95;;;12.40;;
76208;SDS011;64990;51.698;-0.292;2022-12-22T05:05:19;39.50;;;10.07;;
76208;SDS011;64990;51.698;-0.292;2022-12-22T05:07:45;76.78;;;11.20;;
76208;SDS011;64990;51.698;-0.292;2022-12-22T05:10:11;35.33;;;9.88;;
76208;SDS011;64990;51.698;-0.292;2022-12-22T05:12:37;66.43;;;9.45;;
76208;SDS011;64990;51.698;-0.292;2022-12-22T05:15:19;104.45;;;11.02;;
76208;SDS011;64990;51.698;-0.292;2022-12-22T05:17:45;51.53;;;8.75;;
76208;SDS011;64990;51.698;-0.292;2022-12-22T05:20:11;33.17;;;7.07;;
76208;SDS011;64990;51.698;-0.292;2022-12-22T05:22:37;33.65;;;7.60;;
76208;SDS011;64990;51.698;-0.292;2022-12-22T05:25:03;147.88;;;13.98;;
76208;SDS011;64990;51.698;-0.292;2022-12-22T05:27:29;28.05;;;7.82;;
76208;SDS011;64990;51.698;-0.292;2022-12-22T05:29:55;63.90;;;9.13;;
76208;SDS011;64990;51.698;-0.292;2022-12-22T05:32:21;57.50;;;8.93;;
76208;SDS011;64990;51.698;-0.292;2022-12-22T05:34:47;27.38;;;7.47;;
76208;SDS011;64990;51.698;-0.292;2022-12-22T05:37:13;37.67;;;7.47;;
76208;SDS011;64990;51.698;-0.292;2022-12-22T05:39:39;49.80;;;8.25;;
76208;SDS011;64990;51.698;-0.292;2022-12-22T05:42:05;120.05;;;9.95;;
76208;SDS011;64990;51.698;-0.292;2022-12-22T05:44:31;186.55;;;17.38;;
76208;SDS011;64990;51.698;-0.292;2022-12-22T05:46:57;155.68;;;11.68;;
76208;SDS011;64990;51.698;-0.292;2022-12-22T05:49:23;60.85;;;8.90;;
76208;SDS011;64990;51.698;-0.292;2022-12-22T05:51:49;55.75;;;8.25;;
76208;SDS011;64990;51.698;-0.292;2022-12-22T05:54:17;55.33;;;8.88;;
76208;SDS011;64990;51.698;-0.292;2022-12-22T05:56:43;57.40;;;9.32;;
76208;SDS011;64990;51.698;-0.292;2022-12-22T05:59:10;52.28;;;8.80;;
76208;SDS011;64990;51.698;-0.292;2022-12-22T06:01:36;62.25;;;8.20;;
76208;SDS011;64990;51.698;-0.292;2022-12-22T06:04:02;115.45;;;12.95;;
76208;SDS011;64990;51.698;-0.292;2022-12-22T06:06:28;62.40;;;10.23;;
76208;SDS011;64990;51.698;-0.292;2022-12-22T06:08:54;72.13;;;9.68;;
76208;SDS011;64990;51.698;-0.292;2022-12-22T06:11:20;42.95;;;9.10;;
76208;SDS011;64990;51.698;-0.292;2022-12-22T06:13:46;38.97;;;9.27;;
76208;SDS011;64990;51.698;-0.292;2022-12-22T06:16:12;25.60;;;8.25;;
76208;SDS011;64990;51.698;-0.292;2022-12-22T06:18:38;31.05;;;9.20;;
76208;SDS011;64990;51.698;-0.292;2022-12-22T06:21:04;25.98;;;8.02;;
76208;SDS011;64990;51.698;-0.292;2022-12-22T06:23:30;57.85;;;10.50;;
76208;SDS011;64990;51.698;-0.292;2022-12-22T06:25:57;43.85;;;9.98;;
76208;SDS011;64990;51.698;-0.292;2022-12-22T06:28:24;87.00;;;12.38;;
76208;SDS011;64990;51.698;-0.292;2022-12-22T06:30:50;29.40;;;7.88;;
76208;SDS011;64990;51.698;-0.292;2022-12-22T06:33:16;51.72;;;9.30;;
76208;SDS011;64990;51.698;-0.292;2022-12-22T06:35:42;49.75;;;10.38;;
76208;SDS011;64990;51.698;-0.292;2022-12-22T06:38:08;56.40;;;9.75;;
76208;SDS011;64990;51.698;-0.292;2022-12-22T06:40:34;23.80;;;6.97;;
76208;SDS011;64990;51.698;-0.292;2022-12-22T06:43:00;23.77;;;6.75;;
76208;SDS011;64990;51.698;-0.292;2022-12-22T06:45:32;24.02;;;7.63;;
76208;SDS011;64990;51.698;-0.292;2022-12-22T06:47:58;30.00;;;7.65;;
76208;SDS011;64990;51.698;-0.292;2022-12-22T06:50:24;40.30;;;9.00;;
76208;SDS011;64990;51.698;-0.292;2022-12-22T06:52:50;47.17;;;7.97;;
76208;SDS011;64990;51.698;-0.292;2022-12-22T06:55:16;30.85;;;8.73;;
76208;SDS011;64990;51.698;-0.292;2022-12-22T06:57:42;58.15;;;10.02;;
76208;SDS011;64990;51.698;-0.292;2022-12-22T07:00:08;38.55;;;11.35;;
76208;SDS011;64990;51.698;-0.292;2022-12-22T07:02:34;38.97;;;10.50;;
76208;SDS011;64990;51.698;-0.292;2022-12-22T07:05:00;54.15;;;8.98;;
76208;SDS011;64990;51.698;-0.292;2022-12-22T07:07:26;44.75;;;9.45;;
76208;SDS011;64990;51.698;-0.292;2022-12-22T07:09:52;51.03;;;11.65;;
76208;SDS011;64990;51.698;-0.292;2022-12-22T07:12:19;67.22;;;12.35;;
76208;SDS011;64990;51.698;-0.292;2022-12-22T07:14:45;36.90;;;10.00;;
76208;SDS011;64990;51.698;-0.292;2022-12-22T07:17:11;79.00;;;13.23;;
76208;SDS011;64990;51.698;-0.292;2022-12-22T07:19:37;41.83;;;9.10;;
76208;SDS011;64990;51.698;-0.292;2022-12-22T07:22:03;112.68;;;13.02;;
76208;SDS011;64990;51.698;-0.292;2022-12-22T07:24:29;68.68;;;12.07;;
76208;SDS011;64990;51.698;-0.292;2022-12-22T07:26:55;39.78;;;9.90;;
76208;SDS011;64990;51.698;-0.292;2022-12-22T07:29:21;26.63;;;8.82;;
76208;SDS011;64990;51.698;-0.292;2022-12-22T07:31:48;30.02;;;9.90;;
76208;SDS011;64990;51.698;-0.292;2022-12-22T07:34:14;35.45;;;10.15;;
76208;SDS011;64990;51.698;-0.292;2022-12-22T07:36:40;40.30;;;7.80;;
76208;SDS011;64990;51.698;-0.292;2022-12-22T07:39:06;42.45;;;9.52;;
76208;SDS011;64990;51.698;-0.292;2022-12-22T07:41:32;37.03;;;9.50;;
76208;SDS011;64990;51.698;-0.292;2022-12-22T07:44:17;56.80;;;8.93;;
76208;SDS011;64990;51.698;-0.292;2022-12-22T07:46:43;97.05;;;12.57;;
76208;SDS011;64990;51.698;-0.292;2022-12-22T07:49:09;61.83;;;9.73;;
76208;SDS011;64990;51.698;-0.292;2022-12-22T07:51:57;80.68;;;10.38;;
76208;SDS011;64990;51.698;-0.292;2022-12-22T07:54:24;51.95;;;12.40;;
76208;SDS011;64990;51.698;-0.292;2022-12-22T07:56:50;137.65;;;12.55;;
76208;SDS011;64990;51.698;-0.292;2022-12-22T07:59:16;154.10;;;15.05;;
76208;SDS011;64990;51.698;-0.292;2022-12-22T08:01:42;80.15;;;12.25;;
76208;SDS011;64990;51.698;-0.292;2022-12-22T08:04:09;48.08;;;11.30;;
76208;SDS011;64990;51.698;-0.292;2022-12-22T08:06:35;46.45;;;10.02;;
76208;SDS011;64990;51.698;-0.292;2022-12-22T08:09:02;82.18;;;11.40;;
76208;SDS011;64990;51.698;-0.292;2022-12-22T08:11:28;157.20;;;16.05;;
76208;SDS011;64990;51.698;-0.292;2022-12-22T08:13:54;78.88;;;11.75;;
76208;SDS011;64990;51.698;-0.292;2022-12-22T08:16:20;83.97;;;11.10;;
76208;SDS011;64990;51.698;-0.292;2022-12-22T08:18:46;105.43;;;11.90;;
76208;SDS011;64990;51.698;-0.292;2022-12-22T08:21:15;81.00;;;10.30;;
76208;SDS011;64990;51.698;-0.292;2022-12-22T08:23:42;39.40;;;8.88;;
76208;SDS011;64990;51.698;-0.292;2022-12-22T08:26:10;84.90;;;9.60;;
76208;SDS011;64990;51.698;-0.292;2022-12-22T08:28:37;54.53;;;9.63;;
76208;SDS011;64990;51.698;-0.292;2022-12-22T08:31:05;99.30;;;11.32;;
76208;SDS011;64990;51.698;-0.292;2022-12-22T08:33:32;46.83;;;9.25;;
76208;SDS011;64990;51.698;-0.292;2022-12-22T08:35:58;84.10;;;11.25;;
76208;SDS011;64990;51.698;-0.292;2022-12-22T08:38:24;73.70;;;10.45;;
76208;SDS011;64990;51.698;-0.292;2022-12-22T08:40:50;109.03;;;12.43;;
76208;SDS011;64990;51.698;-0.292;2022-12-22T08:43:16;64.20;;;9.20;;
76208;SDS011;64990;51.698;-0.292;2022-12-22T08:45:43;68.32;;;10.77;;
76208;SDS011;64990;51.698;-0.292;2022-12-22T08:48:09;89.78;;;10.02;;
76208;SDS011;64990;51.698;-0.292;2022-12-22T08:50:35;144.25;;;13.88;;
76208;SDS011;64990;51.698;-0.292;2022-12-22T08:53:02;105.18;;;13.75;;
76208;SDS011;64990;51.698;-0.292;2022-12-22T08:55:29;92.57;;;13.73;;
76208;SDS011;64990;51.698;-0.292;2022-12-22T08:57:55;73.65;;;12.80;;
76208;SDS011;64990;51.698;-0.292;2022-12-22T09:00:21;143.88;;;14.02;;
76208;SDS011;64990;51.698;-0.292;2022-12-22T09:02:47;235.82;;;21.77;;
76208;SDS011;64990;51.698;-0.292;2022-12-22T09:05:13;125.38;;;14.95;;
76208;SDS011;64990;51.698;-0.292;2022-12-22T09:07:39;142.27;;;13.60;;
76208;SDS011;64990;51.698;-0.292;2022-12-22T09:10:06;179.93;;;16.88;;
76208;SDS011;64990;51.698;-0.292;2022-12-22T09:12:32;72.50;;;10.57;;
76208;SDS011;64990;51.698;-0.292;2022-12-22T09:14:59;75.88;;;9.15;;
76208;SDS011;64990;51.698;-0.292;2022-12-22T09:17:25;71.55;;;8.95;;
76208;SDS011;64990;51.698;-0.292;2022-12-22T09:19:51;35.15;;;7.55;;
76208;SDS011;64990;51.698;-0.292;2022-12-22T09:22:17;26.02;;;8.18;;
76208;SDS011;64990;51.698;-0.292;2022-12-22T09:24:43;32.03;;;8.55;;
76208;SDS011;64990;51.698;-0.292;2022-12-22T09:27:09;32.83;;;10.95;;
76208;SDS011;64990;51.698;-0.292;2022-12-22T09:29:35;48.45;;;14.02;;
76208;SDS011;64990;51.698;-0.292;2022-12-22T09:32:02;47.55;;;11.32;;
76208;SDS011;64990;51.698;-0.292;2022-12-22T09:34:28;29.35;;;9.88;;
76208;SDS011;64990;51.698;-0.292;2022-12-22T09:36:55;38.47;;;11.18;;
76208;SDS011;64990;51.698;-0.292;2022-12-22T09:39:21;34.35;;;11.15;;
76208;SDS011;64990;51.698;-0.292;2022-12-22T09:47:24;37.72;;;8.32;;
76208;SDS011;64990;51.698;-0.292;2022-12-22T09:49:52;28.63;;;7.57;;
76208;SDS011;64990;51.698;-0.292;2022-12-22T09:52:21;28.65;;;8.55;;
76208;SDS011;64990;51.698;-0.292;2022-12-22T09:54:48;34.78;;;7.65;;
76208;SDS011;64990;51.698;-0.292;2022-12-22T09:57:15;61.50;;;10.98;;
76208;SDS011;64990;51.698;-0.292;2022-12-22T09:59:41;46.72;;;10.25;;
76208;SDS011;64990;51.698;-0.292;2022-12-22T10:04:55;23.25;;;9.20;;
76208;SDS011;64990;51.698;-0.292;2022-12-22T10:09:52;31.83;;;10.15;;
76208;SDS011;64990;51.698;-0.292;2022-12-22T10:12:20;31.50;;;10.23;;
76208;SDS011;64990;51.698;-0.292;2022-12-22T10:14:47;43.25;;;11.57;;
76208;SDS011;64990;51.698;-0.292;2022-12-22T10:17:30;54.45;;;10.15;;
76208;SDS011;64990;51.698;-0.292;2022-12-22T10:20:08;35.05;;;12.85;;
76208;SDS011;64990;51.698;-0.292;2022-12-22T10:22:36;43.45;;;13.23;;
76208;SDS011;64990;51.698;-0.292;2022-12-22T10:25:05;52.00;;;14.27;;
76208;SDS011;64990;51.698;-0.292;2022-12-22T10:27:33;53.17;;;14.88;;
76208;SDS011;64990;51.698;-0.292;2022-12-22T10:30:21;47.92;;;13.40;;
76208;SDS011;64990;51.698;-0.292;2022-12-22T10:33:04;50.65;;;12.88;;
76208;SDS011;64990;51.698;-0.292;2022-12-22T10:38:18;52.00;;;13.52;;
76208;SDS011;64990;51.698;-0.292;2022-12-22T10:40:45;48.67;;;13.25;;
76208;SDS011;64990;51.698;-0.292;2022-12-22T10:43:28;37.05;;;12.82;;
76208;SDS011;64990;51.698;-0.292;2022-12-22T10:45:55;30.10;;;13.38;;
76208;SDS011;64990;51.698;-0.292;2022-12-22T10:48:35;56.72;;;13.00;;
76208;SDS011;64990;51.698;-0.292;2022-12-22T10:51:06;52.25;;;14.38;;
76208;SDS011;64990;51.698;-0.292;2022-12-22T10:56:06;45.67;;;14.35;;
76208;SDS011;64990;51.698;-0.292;2022-12-22T11:01:50;46.60;;;12.10;;
76208;SDS011;64990;51.698;-0.292;2022-12-22T11:04:25;49.15;;;12.30;;
76208;SDS011;64990;51.698;-0.292;2022-12-22T11:06:51;55.47;;;13.45;;
76208;SDS011;64990;51.698;-0.292;2022-12-22T11:09:17;45.90;;;12.70;;
76208;SDS011;64990;51.698;-0.292;2022-12-22T11:14:22;34.13;;;10.85;;
76208;SDS011;64990;51.698;-0.292;2022-12-22T11:16:51;41.13;;;13.55;;
76208;SDS011;64990;51.698;-0.292;2022-12-22T11:19:40;43.60;;;11.30;;
76208;SDS011;64990;51.698;-0.292;2022-12-22T11:34:49;69.32;;;13.60;;
76208;SDS011;64990;51.698;-0.292;2022-12-22T11:37:32;51.35;;;12.18;;
76208;SDS011;64990;51.698;-0.292;2022-12-22T11:40:19;41.10;;;13.68;;
76208;SDS011;64990;51.698;-0.292;2022-12-22T11:43:00;63.42;;;16.05;;
76208;SDS011;64990;51.698;-0.292;2022-12-22T11:48:09;67.65;;;15.65;;
76208;SDS011;64990;51.698;-0.292;2022-12-22T11:50:44;51.10;;;16.50;;
76208;SDS011;64990;51.698;-0.292;2022-12-22T11:53:57;43.75;;;15.30;;
76208;SDS011;64990;51.698;-0.292;2022-12-22T11:58:50;46.53;;;14.50;;
76208;SDS011;64990;51.698;-0.292;2022-12-22T12:19:27;41.00;;;10.57;;
76208;SDS011;64990;51.698;-0.292;2022-12-22T12:21:57;69.70;;;10.90;;
76208;SDS011;64990;51.698;-0.292;2022-12-22T12:29:26;62.70;;;11.98;;
76208;SDS011;64990;51.698;-0.292;2022-12-22T12:34:19;53.75;;;9.35;;
76208;SDS011;64990;51.698;-0.292;2022-12-22T12:36:56;52.17;;;13.35;;
76208;SDS011;64990;51.698;-0.292;2022-12-22T12:44:29;39.92;;;10.15;;
76208;SDS011;64990;51.698;-0.292;2022-12-22T12:47:03;55.17;;;9.95;;
76208;SDS011;64990;51.698;-0.292;2022-12-22T12:52:05;44.67;;;8.48;;
76208;SDS011;64990;51.698;-0.292;2022-12-22T13:00:18;31.08;;;8.02;;
76208;SDS011;64990;51.698;-0.292;2022-12-22T13:10:21;29.80;;;7.67;;
76208;SDS011;64990;51.698;-0.292;2022-12-22T13:12:49;35.92;;;8.80;;
76208;SDS011;64990;51.698;-0.292;2022-12-22T13:15:29;34.33;;;7.68;;
76208;SDS011;64990;51.698;-0.292;2022-12-22T13:17:56;34.55;;;7.78;;
76208;SDS011;64990;51.698;-0.292;2022-12-22T13:20:27;38.33;;;7.78;;
76208;SDS011;64990;51.698;-0.292;2022-12-22T13:22:55;48.00;;;10.20;;
76208;SDS011;64990;51.698;-0.292;2022-12-22T13:25:22;27.25;;;5.65;;
76208;SDS011;64990;51.698;-0.292;2022-12-22T13:27:49;63.00;;;8.85;;
76208;SDS011;64990;51.698;-0.292;2022-12-22T13:30:16;44.60;;;8.63;;
76208;SDS011;64990;51.698;-0.292;2022-12-22T13:32:45;62.55;;;6.13;;
76208;SDS011;64990;51.698;-0.292;2022-12-22T13:37:39;43.72;;;6.90;;
76208;SDS011;64990;51.698;-0.292;2022-12-22T13:40:16;31.52;;;7.75;;
76208;SDS011;64990;51.698;-0.292;2022-12-22T13:45:31;31.30;;;6.40;;
76208;SDS011;64990;51.698;-0.292;2022-12-22T13:47:58;45.90;;;7.78;;
76208;SDS011;64990;51.698;-0.292;2022-12-22T13:50:27;39.50;;;5.45;;
76208;SDS011;64990;51.698;-0.292;2022-12-22T13:52:55;44.85;;;7.55;;
76208;SDS011;64990;51.698;-0.292;2022-12-22T13:55:24;31.00;;;5.45;;
76208;SDS011;64990;51.698;-0.292;2022-12-22T13:57:51;56.03;;;7.97;;
76208;SDS011;64990;51.698;-0.292;2022-12-22T14:00:25;28.77;;;4.95;;
76208;SDS011;64990;51.698;-0.292;2022-12-22T14:02:51;42.08;;;6.85;;
76208;SDS011;64990;51.698;-0.292;2022-12-22T14:05:17;32.45;;;7.00;;
76208;SDS011;64990;51.698;-0.292;2022-12-22T14:08:00;37.53;;;6.95;;
76208;SDS011;64990;51.698;-0.292;2022-12-22T14:10:47;32.45;;;5.78;;
76208;SDS011;64990;51.698;-0.292;2022-12-22T14:13:14;52.20;;;8.02;;
76208;SDS011;64990;51.698;-0.292;2022-12-22T14:15:41;35.78;;;6.55;;
76208;SDS011;64990;51.698;-0.292;2022-12-22T14:18:11;26.40;;;6.22;;
76208;SDS011;64990;51.698;-0.292;2022-12-22T14:20:39;40.00;;;7.68;;
76208;SDS011;64990;51.698;-0.292;2022-12-22T14:23:07;37.22;;;6.82;;
76208;SDS011;64990;51.698;-0.292;2022-12-22T14:25:36;45.05;;;7.82;;
76208;SDS011;64990;51.698;-0.292;2022-12-22T14:28:04;36.92;;;7.85;;
76208;SDS011;64990;51.698;-0.292;2022-12-22T14:30:34;31.05;;;8.98;;
76208;SDS011;64990;51.698;-0.292;2022-12-22T14:35:43;36.88;;;9.88;;
76208;SDS011;64990;51.698;-0.292;2022-12-22T14:40:41;44.83;;;12.48;;
76208;SDS011;64990;51.698;-0.292;2022-12-22T14:45:43;62.45;;;14.25;;
76208;SDS011;64990;51.698;-0.292;2022-12-22T14:48:14;40.80;;;13.50;;
76208;SDS011;64990;51.698;-0.292;2022-12-22T14:50:46;51.40;;;13.00;;
76208;SDS011;64990;51.698;-0.292;2022-12-22T14:53:13;58.75;;;14.57;;
76208;SDS011;64990;51.698;-0.292;2022-12-22T14:55:41;74.32;;;13.40;;
76208;SDS011;64990;51.698;-0.292;2022-12-22T15:00:35;45.53;;;12.38;;
76208;SDS011;64990;51.698;-0.292;2022-12-22T15:03:03;44.08;;;7.90;;
76208;SDS011;64990;51.698;-0.292;2022-12-22T15:05:36;41.25;;;10.10;;
76208;SDS011;64990;51.698;-0.292;2022-12-22T15:08:06;36.72;;;8.15;;
76208;SDS011;64990;51.698;-0.292;2022-12-22T15:10:51;38.55;;;8.32;;
76208;SDS011;64990;51.698;-0.292;2022-12-22T15:13:20;32.17;;;9.55;;
76208;SDS011;64990;51.698;-0.292;2022-12-22T15:15:48;29.13;;;5.85;;
76208;SDS011;64990;51.698;-0.292;2022-12-22T15:18:14;38.83;;;5.40;;
76208;SDS011;64990;51.698;-0.292;2022-12-22T15:20:41;41.42;;;6.03;;
76208;SDS011;64990;51.698;-0.292;2022-12-22T15:23:13;54.97;;;6.60;;
76208;SDS011;64990;51.698;-0.292;2022-12-22T15:25:42;39.05;;;5.25;;
76208;SDS011;64990;51.698;-0.292;2022-12-22T15:28:09;44.75;;;9.85;;
76208;SDS011;64990;51.698;-0.292;2022-12-22T15:30:35;30.30;;;8.13;;
76208;SDS011;64990;51.698;-0.292;2022-12-22T15:33:01;43.58;;;12.27;;
76208;SDS011;64990;51.698;-0.292;2022-12-22T15:35:28;55.47;;;20.75;;
76208;SDS011;64990;51.698;-0.292;2022-12-22T15:37:55;78.43;;;22.15;;
76208;SDS011;64990;51.698;-0.292;2022-12-22T15:40:21;104.28;;;27.33;;
76208;SDS011;64990;51.698;-0.292;2022-12-22T15:42:48;64.40;;;19.55;;
76208;SDS011;64990;51.698;-0.292;2022-12-22T15:45:14;71.47;;;17.90;;
76208;SDS011;64990;51.698;-0.292;2022-12-22T15:47:42;66.80;;;19.40;;
76208;SDS011;64990;51.698;-0.292;2022-12-22T15:50:21;74.78;;;18.35;;
76208;SDS011;64990;51.698;-0.292;2022-12-22T15:52:49;64.63;;;18.27;;
76208;SDS011;64990;51.698;-0.292;2022-12-22T15:55:16;54.83;;;16.33;;
76208;SDS011;64990;51.698;-0.292;2022-12-22T15:57:42;80.65;;;18.27;;
76208;SDS011;64990;51.698;-0.292;2022-12-22T16:00:10;64.65;;;14.88;;
76208;SDS011;64990;51.698;-0.292;2022-12-22T16:02:36;42.40;;;11.50;;
76208;SDS011;64990;51.698;-0.292;2022-12-22T16:05:02;61.60;;;12.07;;
76208;SDS011;64990;51.698;-0.292;2022-12-22T16:07:29;54.17;;;12.43;;
76208;SDS011;64990;51.698;-0.292;2022-12-22T16:09:55;34.97;;;8.23;;
76208;SDS011;64990;51.698;-0.292;2022-12-22T16:12:22;24.15;;;8.43;;
76208;SDS011;64990;51.698;-0.292;2022-12-22T16:14:49;52.08;;;14.82;;
76208;SDS011;64990;51.698;-0.292;2022-12-22T16:17:23;43.15;;;12.85;;
76208;SDS011;64990;51.698;-0.292;2022-12-22T16:19:50;54.88;;;15.38;;
76208;SDS011;64990;51.698;-0.292;2022-12-22T16:22:16;58.60;;;17.65;;
76208;SDS011;64990;51.698;-0.292;2022-12-22T16:24:43;53.60;;;18.73;;
76208;SDS011;64990;51.698;-0.292;2022-12-22T16:27:10;64.63;;;20.13;;
76208;SDS011;64990;51.698;-0.292;2022-12-22T16:29:37;36.28;;;14.00;;
76208;SDS011;64990;51.698;-0.292;2022-12-22T16:32:16;46.67;;;12.63;;
76208;SDS011;64990;51.698;-0.292;2022-12-22T16:34:45;54.00;;;14.45;;
76208;SDS011;64990;51.698;-0.292;2022-12-22T16:37:11;52.50;;;13.43;;
76208;SDS011;64990;51.698;-0.292;2022-12-22T16:39:37;44.38;;;12.73;;